createdAt,value
2019-05-29T00:00:07.853Z,59.11
2019-05-29T00:02:59.854Z,58.93
2019-05-29T00:05:51.841Z,59.26
2019-05-29T00:08:43.761Z,60.68
2019-05-29T00:11:35.595Z,61.69
2019-05-29T00:14:27.903Z,60.67
2019-05-29T00:17:19.755Z,60.67
2019-05-29T00:20:12.386Z,59.94
2019-05-29T00:23:04.517Z,59.94
2019-05-29T00:25:56.627Z,59.75
2019-05-29T00:28:48.687Z,59.67
2019-05-29T00:31:40.746Z,59.74
2019-05-29T00:34:32.583Z,59.79
2019-05-29T00:37:24.404Z,59.46
2019-05-29T00:40:17.115Z,59.46
2019-05-29T00:43:09.570Z,60.25
2019-05-29T00:46:01.405Z,60.56
2019-05-29T00:48:53.433Z,60.26
2019-05-29T00:51:45.611Z,60.26
2019-05-29T00:54:37.843Z,60.72
2019-05-29T00:57:29.670Z,60.72
2019-05-29T01:00:21.753Z,60.12
2019-05-29T01:03:13.829Z,60.34
2019-05-29T01:06:05.628Z,61.06
2019-05-29T01:08:57.283Z,61.51
2019-05-29T01:11:49.465Z,62.49
2019-05-29T01:14:49.713Z,62.21
2019-05-29T01:17:35.234Z,62.03
2019-05-29T01:20:27.180Z,61.50
2019-05-29T01:23:20.350Z,61.50
2019-05-29T01:26:14.486Z,60.88
2019-05-29T01:29:06.644Z,60.85
2019-05-29T01:31:58.667Z,61.02
2019-05-29T01:34:50.708Z,61.43
2019-05-29T01:37:42.467Z,61.43
2019-05-29T01:40:34.484Z,61.46
2019-05-29T01:43:27.660Z,62.21
2019-05-29T01:46:19.833Z,64.18
2019-05-29T01:49:12.160Z,62.98
2019-05-29T01:52:04.055Z,62.26
2019-05-29T01:54:56.387Z,62.00
2019-05-29T01:57:48.810Z,61.88
2019-05-29T02:00:41.187Z,61.97
2019-05-29T02:03:33.494Z,61.32
2019-05-29T02:06:25.618Z,61.21
2019-05-29T02:09:17.982Z,61.06
2019-05-29T02:12:09.982Z,61.18
2019-05-29T02:15:02.269Z,61.86
2019-05-29T02:17:54.411Z,62.37
2019-05-29T02:20:46.447Z,62.24
2019-05-29T02:23:38.415Z,63.40
2019-05-29T02:26:30.532Z,62.59
2019-05-29T02:29:22.942Z,62.59
2019-05-29T02:32:14.939Z,65.19
2019-05-29T02:35:07.286Z,67.11
2019-05-29T02:37:59.157Z,65.98
2019-05-29T02:40:51.253Z,65.98
2019-05-29T02:43:43.097Z,64.03
2019-05-29T02:46:34.987Z,63.00
2019-05-29T02:49:28.121Z,62.67
2019-05-29T02:52:20.111Z,62.27
2019-05-29T02:55:11.975Z,62.47
2019-05-29T02:58:03.829Z,62.47
2019-05-29T03:00:55.555Z,62.13
2019-05-29T03:03:47.404Z,62.62
2019-05-29T03:06:39.173Z,62.08
2019-05-29T03:09:32.527Z,63.00
2019-05-29T03:12:25.068Z,63.00
2019-05-29T03:15:17.203Z,63.47
2019-05-29T03:18:08.991Z,63.41
2019-05-29T03:21:01.068Z,63.41
2019-05-29T03:23:52.879Z,63.71
2019-05-29T03:26:44.821Z,62.84
2019-05-29T03:29:38.587Z,63.32
2019-05-29T03:32:32.392Z,63.32
2019-05-29T03:35:24.054Z,64.65
2019-05-29T03:38:16.095Z,63.00
2019-05-29T03:41:07.746Z,63.26
2019-05-29T03:43:59.825Z,63.31
2019-05-29T03:46:51.610Z,63.24
2019-05-29T03:49:43.321Z,63.40
2019-05-29T03:52:35.149Z,63.02
2019-05-29T03:55:27.496Z,63.02
2019-05-29T03:58:20.563Z,63.66
2019-05-29T04:01:13.399Z,64.15
2019-05-29T04:04:05.719Z,68.91
2019-05-29T04:06:57.768Z,70.52
2019-05-29T04:09:49.822Z,68.07
2019-05-29T04:12:41.697Z,69.11
2019-05-29T04:15:36.187Z,69.91
2019-05-29T04:18:29.709Z,70.08
2019-05-29T04:21:21.966Z,69.34
2019-05-29T04:24:14.127Z,67.76
2019-05-29T04:27:07.205Z,66.75
2019-05-29T04:30:00.243Z,66.01
2019-05-29T04:32:52.104Z,65.80
2019-05-29T04:35:44.210Z,67.31
2019-05-29T04:38:38.437Z,66.31
2019-05-29T04:41:30.918Z,68.21
2019-05-29T04:44:23.167Z,68.21
2019-05-29T04:47:15.287Z,70.04
2019-05-29T04:50:07.370Z,68.45
2019-05-29T04:52:59.202Z,68.52
2019-05-29T04:55:51.083Z,66.87
2019-05-29T04:58:43.040Z,69.25
2019-05-29T05:01:35.091Z,67.57
2019-05-29T05:04:27.175Z,67.86
2019-05-29T05:07:18.926Z,67.84
2019-05-29T05:10:10.726Z,69.61
2019-05-29T05:13:03.059Z,67.99
2019-05-29T05:15:54.945Z,67.66
2019-05-29T05:18:46.896Z,68.33
2019-05-29T05:21:38.624Z,67.52
2019-05-29T05:24:30.647Z,69.33
2019-05-29T05:27:22.538Z,69.34
2019-05-29T05:30:14.908Z,66.52
2019-05-29T05:33:06.649Z,66.52
2019-05-29T05:35:58.740Z,68.67
2019-05-29T05:38:50.937Z,68.17
2019-05-29T05:41:42.892Z,69.27
2019-05-29T05:44:34.989Z,67.84
2019-05-29T05:47:43.469Z,67.84
2019-05-29T05:50:20.869Z,67.50
2019-05-29T05:53:13.822Z,67.50
2019-05-29T05:56:06.067Z,68.46
2019-05-29T05:58:57.879Z,68.46
2019-05-29T06:01:50.232Z,67.12
2019-05-29T06:04:42.427Z,66.84
2019-05-29T06:07:34.649Z,66.47
2019-05-29T06:10:26.797Z,66.47
2019-05-29T06:13:18.999Z,64.80
2019-05-29T06:16:11.039Z,64.21
2019-05-29T06:19:03.496Z,64.11
2019-05-29T06:21:55.589Z,64.89
2019-05-29T06:24:47.660Z,65.39
2019-05-29T06:27:39.416Z,65.39
2019-05-29T06:30:31.329Z,63.17
2019-05-29T06:33:23.289Z,65.10
2019-05-29T06:36:15.090Z,63.40
2019-05-29T06:39:07.116Z,61.40
2019-05-29T06:41:59.173Z,61.67
2019-05-29T06:44:51.420Z,60.71
2019-05-29T06:47:44.613Z,60.95
2019-05-29T06:50:37.474Z,60.95
2019-05-29T06:53:29.608Z,58.64
2019-05-29T06:56:21.864Z,59.74
2019-05-29T06:59:14.058Z,59.74
2019-05-29T07:02:06.219Z,59.83
2019-05-29T07:04:58.076Z,58.47
2019-05-29T07:07:49.846Z,58.47
2019-05-29T07:10:42.640Z,57.77
2019-05-29T07:13:35.400Z,57.77
2019-05-29T07:16:43.254Z,57.05
2019-05-29T07:19:28.214Z,56.54
2019-05-29T07:22:16.375Z,56.97
2019-05-29T07:25:08.728Z,56.89
2019-05-29T07:28:01.026Z,56.89
2019-05-29T07:31:00.995Z,55.51
2019-05-29T07:33:47.425Z,56.16
2019-05-29T07:36:39.932Z,55.75
2019-05-29T07:39:32.190Z,55.75
2019-05-29T07:42:23.984Z,57.20
2019-05-29T07:45:15.782Z,56.78
2019-05-29T07:48:07.657Z,54.41
2019-05-29T07:51:06.952Z,54.04
2019-05-29T07:53:53.524Z,53.75
2019-05-29T07:56:46.530Z,53.84
2019-05-29T07:59:38.831Z,53.84
2019-05-29T08:02:31.064Z,52.71
2019-05-29T08:05:23.212Z,52.71
2019-05-29T08:08:15.263Z,52.18
2019-05-29T08:11:07.039Z,53.67
2019-05-29T08:13:59.099Z,53.67
2019-05-29T08:16:51.169Z,52.59
2019-05-29T08:20:00.353Z,52.29
2019-05-29T08:22:36.726Z,51.83
2019-05-29T08:25:28.590Z,51.83
2019-05-29T08:28:20.423Z,50.81
2019-05-29T08:31:12.242Z,52.00
2019-05-29T08:34:04.242Z,52.50
2019-05-29T08:37:06.631Z,49.81
2019-05-29T08:39:51.576Z,49.20
2019-05-29T08:42:45.162Z,50.59
2019-05-29T08:45:37.469Z,49.10
2019-05-29T08:48:29.425Z,51.78
2019-05-29T08:51:21.467Z,50.30
2019-05-29T08:54:23.591Z,50.30
2019-05-29T08:57:07.338Z,49.33
2019-05-29T08:59:59.573Z,50.27
2019-05-29T09:02:52.712Z,45.95
2019-05-29T09:05:44.930Z,46.08
2019-05-29T09:08:37.045Z,46.08
2019-05-29T09:11:29.015Z,45.71
2019-05-29T09:14:21.154Z,45.08
2019-05-29T09:17:14.592Z,46.43
2019-05-29T09:20:06.794Z,46.40
2019-05-29T09:22:59.015Z,46.40
2019-05-29T09:25:50.847Z,46.79
2019-05-29T09:28:43.024Z,46.25
2019-05-29T09:31:35.129Z,45.05
2019-05-29T09:34:27.110Z,46.75
2019-05-29T09:37:20.421Z,46.02
2019-05-29T09:40:17.024Z,46.02
2019-05-29T09:43:09.230Z,45.10
2019-05-29T09:46:02.338Z,45.25
2019-05-29T09:48:54.586Z,44.14
2019-05-29T09:51:46.984Z,44.14
2019-05-29T09:54:38.933Z,42.80
2019-05-29T09:57:31.120Z,45.43
2019-05-29T10:00:23.026Z,45.43
2019-05-29T10:03:14.749Z,45.28
2019-05-29T10:06:09.317Z,45.28
2019-05-29T10:09:01.638Z,43.92
2019-05-29T10:11:58.031Z,41.88
2019-05-29T10:14:51.193Z,41.88
2019-05-29T10:17:41.414Z,43.84
2019-05-29T10:20:33.515Z,43.69
2019-05-29T10:23:25.543Z,43.69
2019-05-29T10:26:22.152Z,45.10
2019-05-29T10:29:14.430Z,41.39
2019-05-29T10:32:06.767Z,42.51
2019-05-29T10:34:59.179Z,41.58
2019-05-29T10:37:51.281Z,41.86
2019-05-29T10:40:50.130Z,41.86
2019-05-29T10:43:37.310Z,41.17
2019-05-29T10:46:29.593Z,40.16
2019-05-29T10:49:21.769Z,40.16
2019-05-29T10:52:17.176Z,39.75
2019-05-29T10:55:07.373Z,39.75
2019-05-29T10:57:59.799Z,37.92
2019-05-29T11:00:51.990Z,38.66
2019-05-29T11:03:45.522Z,38.43
2019-05-29T11:06:40.432Z,37.54
2019-05-29T11:09:44.145Z,38.06
2019-05-29T11:12:25.519Z,39.18
2019-05-29T11:15:21.437Z,39.18
2019-05-29T11:18:11.337Z,37.90
2019-05-29T11:21:03.394Z,38.52
2019-05-29T11:23:56.034Z,38.52
2019-05-29T11:26:48.407Z,36.78
2019-05-29T11:29:40.834Z,38.06
2019-05-29T11:32:33.040Z,38.31
2019-05-29T11:35:25.328Z,39.94
2019-05-29T11:38:17.240Z,39.94
2019-05-29T11:41:25.035Z,39.69
2019-05-29T11:44:03.523Z,39.09
2019-05-29T11:46:56.129Z,40.42
2019-05-29T11:49:48.062Z,38.00
2019-05-29T11:52:42.929Z,40.06
2019-05-29T11:55:33.709Z,40.07
2019-05-29T11:58:30.991Z,37.18
2019-05-29T12:01:19.255Z,37.18
2019-05-29T12:04:24.184Z,37.05
2019-05-29T12:07:05.985Z,36.89
2019-05-29T12:09:59.492Z,39.03
2019-05-29T12:12:51.467Z,39.03
2019-05-29T12:15:43.935Z,36.21
2019-05-29T12:18:35.701Z,37.30
2019-05-29T12:21:28.007Z,37.17
2019-05-29T12:24:19.851Z,39.08
2019-05-29T12:27:12.224Z,36.58
2019-05-29T12:30:08.846Z,38.17
2019-05-29T12:33:01.201Z,39.30
2019-05-29T12:35:52.967Z,39.00
2019-05-29T12:38:44.971Z,39.00
2019-05-29T12:41:37.145Z,36.11
2019-05-29T12:44:28.983Z,37.04
2019-05-29T12:47:21.041Z,36.82
2019-05-29T12:50:14.547Z,36.82
2019-05-29T12:53:06.083Z,36.46
2019-05-29T12:55:58.362Z,37.85
2019-05-29T12:58:50.210Z,36.40
2019-05-29T13:01:42.231Z,35.86
2019-05-29T13:05:05.117Z,34.94
2019-05-29T13:07:27.440Z,36.12
2019-05-29T13:10:29.884Z,37.17
2019-05-29T13:13:13.431Z,36.72
2019-05-29T13:16:05.454Z,36.06
2019-05-29T13:18:57.399Z,34.35
2019-05-29T13:21:49.576Z,34.24
2019-05-29T13:24:41.272Z,35.75
2019-05-29T13:27:33.291Z,37.38
2019-05-29T13:30:25.492Z,37.38
2019-05-29T13:33:17.239Z,33.63
2019-05-29T13:36:09.261Z,31.71
2019-05-29T13:39:02.369Z,33.30
2019-05-29T13:41:54.137Z,37.10
2019-05-29T13:44:46.457Z,37.10
2019-05-29T13:47:38.368Z,33.79
2019-05-29T13:50:30.173Z,33.19
2019-05-29T13:53:22.339Z,35.37
2019-05-29T13:56:14.381Z,34.05
2019-05-29T13:59:06.715Z,33.69
2019-05-29T14:02:00.263Z,31.67
2019-05-29T14:04:52.290Z,30.35
2019-05-29T14:07:44.270Z,31.11
2019-05-29T14:10:36.418Z,32.99
2019-05-29T14:13:28.508Z,32.32
2019-05-29T14:16:20.468Z,29.94
2019-05-29T14:19:13.617Z,29.94
2019-05-29T14:22:07.002Z,29.45
2019-05-29T14:24:59.175Z,28.99
2019-05-29T14:27:51.072Z,29.27
2019-05-29T14:30:42.905Z,30.85
2019-05-29T14:33:35.132Z,30.85
2019-05-29T14:36:26.919Z,31.33
2019-05-29T14:39:19.147Z,31.33
2019-05-29T14:42:11.881Z,29.13
2019-05-29T14:45:08.370Z,26.44
2019-05-29T14:48:02.147Z,26.75
2019-05-29T14:50:54.275Z,26.22
2019-05-29T14:53:45.955Z,28.00
2019-05-29T14:56:38.073Z,26.42
2019-05-29T14:59:29.963Z,26.42
2019-05-29T15:02:24.189Z,25.83
2019-05-29T15:05:16.797Z,26.29
2019-05-29T15:08:10.065Z,25.37
2019-05-29T15:11:03.650Z,25.75
2019-05-29T15:13:55.809Z,26.76
2019-05-29T15:16:47.897Z,27.02
2019-05-29T15:19:39.809Z,27.29
2019-05-29T15:22:31.574Z,27.29
2019-05-29T15:25:24.482Z,29.34
2019-05-29T15:28:18.024Z,29.34
2019-05-29T15:31:10.408Z,29.13
2019-05-29T15:34:02.455Z,29.46
2019-05-29T15:36:54.334Z,30.41
2019-05-29T15:39:46.226Z,33.12
2019-05-29T15:42:38.052Z,32.95
2019-05-29T15:45:30.143Z,32.95
2019-05-29T15:48:22.339Z,29.92
2019-05-29T15:51:15.107Z,29.92
2019-05-29T15:54:07.138Z,27.92
2019-05-29T15:56:59.307Z,27.92
2019-05-29T15:59:51.313Z,25.01
2019-05-29T16:02:43.259Z,25.01
2019-05-29T16:05:35.257Z,25.23
2019-05-29T16:08:27.327Z,24.73
2019-05-29T16:11:19.265Z,26.23
2019-05-29T16:14:11.035Z,24.78
2019-05-29T16:17:02.725Z,25.40
2019-05-29T16:19:54.774Z,24.65
2019-05-29T16:22:46.723Z,25.82
2019-05-29T16:25:40.674Z,25.82
2019-05-29T16:28:32.000Z,29.03
2019-05-29T16:31:24.048Z,26.50
2019-05-29T16:34:18.397Z,25.97
2019-05-29T16:37:11.117Z,26.12
2019-05-29T16:40:08.601Z,26.12
2019-05-29T16:43:00.255Z,25.64
2019-05-29T16:45:52.148Z,26.63
2019-05-29T16:48:43.989Z,26.63
2019-05-29T16:51:35.761Z,25.89
2019-05-29T16:54:27.827Z,25.89
2019-05-29T16:57:21.195Z,26.65
2019-05-29T17:00:15.593Z,26.65
2019-05-29T17:03:07.595Z,27.02
2019-05-29T17:05:59.428Z,27.30
2019-05-29T17:08:51.541Z,26.51
2019-05-29T17:11:43.387Z,26.51
2019-05-29T17:14:35.510Z,27.72
2019-05-29T17:17:30.499Z,26.77
2019-05-29T17:20:36.316Z,26.77
2019-05-29T17:23:28.171Z,27.39
2019-05-29T17:26:20.799Z,28.66
2019-05-29T17:29:13.052Z,28.66
2019-05-29T17:32:05.490Z,28.46
2019-05-29T17:34:57.432Z,26.93
2019-05-29T17:37:49.402Z,27.47
2019-05-29T17:40:41.810Z,26.70
2019-05-29T17:43:33.600Z,26.70
2019-05-29T17:46:25.923Z,28.04
2019-05-29T17:49:17.863Z,28.04
2019-05-29T17:52:10.331Z,27.40
2019-05-29T17:55:03.694Z,27.97
2019-05-29T17:57:55.820Z,27.97
2019-05-29T18:00:47.802Z,28.27
2019-05-29T18:03:40.007Z,28.27
2019-05-29T18:06:32.013Z,30.22
2019-05-29T18:09:27.396Z,30.22
2019-05-29T18:12:19.057Z,29.03
2019-05-29T18:15:10.827Z,29.30
2019-05-29T18:18:02.847Z,29.30
2019-05-29T18:20:54.609Z,29.56
2019-05-29T18:23:46.774Z,29.21
2019-05-29T18:26:46.839Z,28.91
2019-05-29T18:29:32.285Z,29.49
2019-05-29T18:32:24.643Z,31.32
2019-05-29T18:35:16.747Z,29.64
2019-05-29T18:38:08.937Z,30.35
2019-05-29T18:41:01.214Z,30.35
2019-05-29T18:43:53.350Z,30.30
2019-05-29T18:46:45.160Z,29.73
2019-05-29T18:49:37.281Z,30.36
2019-05-29T18:52:29.942Z,30.15
2019-05-29T18:55:22.785Z,30.67
2019-05-29T18:58:14.782Z,30.67
2019-05-29T19:01:06.895Z,32.29
2019-05-29T19:03:58.897Z,33.31
2019-05-29T19:06:50.961Z,33.47
2019-05-29T19:09:42.726Z,33.55
2019-05-29T19:12:35.089Z,34.33
2019-05-29T19:15:28.054Z,34.33
2019-05-29T19:18:20.210Z,36.99
2019-05-29T19:21:12.004Z,35.56
2019-05-29T19:24:03.917Z,37.69
2019-05-29T19:26:55.739Z,37.69
2019-05-29T19:29:47.969Z,37.74
2019-05-29T19:32:39.839Z,37.74
2019-05-29T19:35:31.892Z,36.60
2019-05-29T19:38:24.052Z,37.62
2019-05-29T19:41:15.975Z,38.09
2019-05-29T19:44:10.676Z,39.25
2019-05-29T19:47:03.243Z,39.50
2019-05-29T19:49:55.551Z,40.32
2019-05-29T19:52:47.801Z,40.32
2019-05-29T19:55:39.941Z,40.67
2019-05-29T19:58:31.999Z,40.67
2019-05-29T20:01:31.609Z,41.32
2019-05-29T20:04:17.445Z,41.53
2019-05-29T20:07:09.602Z,43.01
2019-05-29T20:10:01.519Z,42.40
2019-05-29T20:12:53.499Z,42.40
2019-05-29T20:15:46.459Z,42.53
2019-05-29T20:18:38.568Z,41.96
2019-05-29T20:21:30.667Z,42.76
2019-05-29T20:24:22.728Z,42.07
2019-05-29T20:27:14.579Z,42.88
2019-05-29T20:30:07.724Z,42.88
2019-05-29T20:32:59.289Z,43.28
2019-05-29T20:35:51.431Z,43.51
2019-05-29T20:38:43.487Z,43.88
2019-05-29T20:41:38.372Z,43.88
2019-05-29T20:44:28.707Z,44.18
2019-05-29T20:47:20.467Z,43.22
2019-05-29T20:50:12.490Z,43.22
2019-05-29T20:53:04.243Z,43.88
2019-05-29T20:55:56.290Z,44.02
2019-05-29T20:58:48.155Z,44.50
2019-05-29T21:01:45.537Z,44.82
2019-05-29T21:04:34.665Z,44.82
2019-05-29T21:07:26.417Z,45.14
2019-05-29T21:10:18.957Z,44.58
2019-05-29T21:13:10.983Z,46.08
2019-05-29T21:16:02.842Z,47.05
2019-05-29T21:18:54.699Z,46.57
2019-05-29T21:21:46.563Z,46.48
2019-05-29T21:24:38.984Z,46.19
2019-05-29T21:27:31.286Z,46.19
2019-05-29T21:30:23.179Z,46.86
2019-05-29T21:33:15.469Z,47.18
2019-05-29T21:36:07.431Z,45.33
2019-05-29T21:38:59.446Z,45.33
2019-05-29T21:41:51.447Z,46.44
2019-05-29T21:44:44.804Z,46.42
2019-05-29T21:47:37.352Z,46.42
2019-05-29T21:50:29.332Z,47.70
2019-05-29T21:53:22.014Z,48.32
2019-05-29T21:56:14.034Z,46.90
2019-05-29T21:59:06.216Z,46.47
2019-05-29T22:01:58.395Z,46.04
2019-05-29T22:04:50.355Z,46.04
2019-05-29T22:07:42.804Z,46.31
2019-05-29T22:10:35.006Z,46.31
2019-05-29T22:13:26.858Z,45.34
2019-05-29T22:16:18.704Z,45.34
2019-05-29T22:19:10.556Z,46.38
2019-05-29T22:22:02.388Z,44.79
2019-05-29T22:24:55.202Z,44.79
2019-05-29T22:27:46.820Z,47.46
2019-05-29T22:30:38.677Z,47.43
2019-05-29T22:33:30.697Z,48.23
2019-05-29T22:36:22.499Z,46.33
2019-05-29T22:39:14.503Z,46.33
2019-05-29T22:42:06.616Z,46.44
2019-05-29T22:44:58.391Z,45.59
2019-05-29T22:47:51.530Z,46.20
2019-05-29T22:50:43.645Z,46.20
2019-05-29T22:53:35.488Z,47.27
2019-05-29T22:56:28.071Z,46.87
2019-05-29T22:59:31.456Z,46.17
2019-05-29T23:02:13.678Z,46.80
2019-05-29T23:05:06.225Z,46.80
2019-05-29T23:07:58.802Z,46.94
2019-05-29T23:10:52.172Z,47.95
2019-05-29T23:13:44.271Z,46.97
2019-05-29T23:16:36.107Z,48.11
2019-05-29T23:19:27.971Z,48.11
2019-05-29T23:22:19.861Z,48.35
2019-05-29T23:25:11.859Z,49.24
2019-05-29T23:28:03.817Z,50.15
2019-05-29T23:30:56.665Z,50.38
2019-05-29T23:33:49.051Z,50.38
2019-05-29T23:36:41.224Z,48.68
2019-05-29T23:39:33.270Z,48.22
2019-05-29T23:42:25.401Z,47.23
2019-05-29T23:45:17.423Z,47.84
2019-05-29T23:48:09.587Z,47.82
2019-05-29T23:51:02.010Z,46.84
2019-05-29T23:53:55.563Z,46.84
2019-05-29T23:56:48.068Z,46.58
2019-05-29T23:59:40.113Z,47.02
